Flight Track Log - Related Links

Times and Time Zones

All times are in EDT time to prevent confusion due to time zone crossing. See the NKS875 flight status page for this flight to view local times or setup timezone preferences in your user account.

Time Position Orientation Groundspeed Altitude Reporting Facility
EDT Latitude Longitude Course Direction KTS MPH feet Rate Location/Type
Wed 01:36:35 AM 32.9270 -97.0560 346° North 168 193 2,000  Level FlightAware ADS-B
Wed 01:37:05 AM 32.9530 -97.0630 347° North 203 234 2,600 1,527 Climbing FlightAware ADS-B
Wed 01:37:30 AM 32.9760 -97.0710 344° North 228 262 3,400 2,509 Climbing FlightAware ADS-B
Wed 01:38:00 AM 33.0050 -97.0900 331° Northwest 249 287 4,900 3,200 Climbing FlightAware ADS-B
Wed 01:38:15 AM 33.0110 -97.1100 290° West 255 293 5,800 2,850 Climbing FlightAware ADS-B
Wed 01:38:40 AM 33.0150 -97.1440 278° West 271 312 6,800 3,055 Climbing FlightAware ADS-B
Wed 01:39:10 AM 33.0210 -97.1900 279° West 272 313 8,600 3,382 Climbing FlightAware ADS-B
Wed 01:39:35 AM 33.0260 -97.2270 279° West 272 313 9,900 2,229 Climbing FlightAware ADS-B
Wed 01:40:20 AM 33.0350 -97.2990 278° West 313 360 11,200 1,906 Climbing FlightAware ADS-B
Wed 01:41:00 AM 33.0440 -97.3680 279° West 331 381 12,600 2,250 Climbing FlightAware ADS-B
Wed 01:41:40 AM 33.0540 -97.4410 279° West 340 391 14,200 2,471 Climbing FlightAware ADS-B
Wed 01:42:25 AM 33.0640 -97.5270 278° West 347 399 16,100 2,329 Climbing FlightAware ADS-B
Wed 01:43:05 AM 33.0740 -97.6010 279° West 356 410 17,500 2,188 Climbing FlightAware ADS-B
Wed 01:43:50 AM 33.0850 -97.6910 278° West 363 418 19,200 2,267 Climbing FlightAware ADS-B
Wed 01:44:35 AM 33.1050 -97.7780 285° West 362 417 20,900 2,118 Climbing FlightAware ADS-B
Wed 01:45:15 AM 33.1290 -97.8540 291° West 364 419 22,200 1,875 Climbing FlightAware ADS-B
Wed 01:45:55 AM 33.1530 -97.9290 291° West 370 426 23,400 1,553 Climbing FlightAware ADS-B
Wed 01:46:40 AM 33.1800 -98.0150 291° West 379 436 24,400 1,412 Climbing FlightAware ADS-B
Wed 01:47:20 AM 33.2030 -98.0900 290° West 384 442 25,400 1,440 Climbing FlightAware ADS-B
Wed 01:47:55 AM 33.2260 -98.1630 291° West 388 447 26,200 1,553 Climbing FlightAware ADS-B
Wed 01:48:45 AM 33.2580 -98.2640 291° West 386 444 27,600 1,533 Climbing FlightAware ADS-B
Wed 01:49:25 AM 33.2830 -98.3460 290° West 390 449 28,500 1,200 Climbing FlightAware ADS-B
Wed 01:50:10 AM 33.3120 -98.4380 291° West 397 457 29,300 960 Climbing FlightAware ADS-B
Wed 01:50:40 AM 33.3300 -98.4950 291° West 401 461 29,700 1,200 Climbing FlightAware ADS-B
Wed 01:51:25 AM 33.3580 -98.5880 290° West 399 459 30,800 1,333 Climbing FlightAware ADS-B
Wed 01:52:10 AM 33.4020 -98.6770 301° West 407 468 31,700 800 Climbing FlightAware ADS-B
Wed 01:53:10 AM 33.4690 -98.7700 311° West 405 466 32,200 1,252 Climbing FlightAware ADS-B
Wed 01:54:05 AM 33.5360 -98.8640 311° West 397 457 34,100 1,140 Climbing FlightAware ADS-B
Wed 01:54:50 AM 33.5860 -98.9340 311° West 397 457 34,100  Level FlightAware ADS-B
Wed 01:55:20 AM 33.6160 -98.9770 310° West 397 457 34,100 1,271 Level FlightAware ADS-B
Wed 01:56:15 AM 33.6860 -99.0740 311° West 388 447 35,900 1,137 Climbing FlightAware ADS-B
Wed 01:56:55 AM 33.7250 -99.1300 310° West 388 447 35,900  Level FlightAware ADS-B
Wed 01:57:35 AM 33.7650 -99.1860 311° West 388 447 35,900  Level FlightAware ADS-B
Wed 01:58:15 AM 33.8040 -99.2430 309° West 388 447 35,900  Level FlightAware ADS-B
Wed 01:58:55 AM 33.8430 -99.2990 310° West 388 447 35,900 71 Level FlightAware ADS-B
Wed 01:59:40 AM 33.9340 -99.4200 312° West 392 451 36,000 67 Climbing FlightAware ADS-B
Wed 02:00:25 AM 33.9810 -99.4880 310° West 392 451 36,000  Level FlightAware ADS-B
Wed 02:01:05 AM 34.0310 -99.5570 311° West 391 450 36,000  Level FlightAware ADS-B
Wed 02:01:45 AM 34.0780 -99.6250 310° West 390 449 36,000  Level FlightAware ADS-B
Wed 02:02:30 AM 34.1310 -99.7000 310° West 388 447 36,000  Level FlightAware ADS-B
Wed 02:03:05 AM 34.1700 -99.7550 311° West 386 444 36,000  Level FlightAware ADS-B
Wed 02:03:50 AM 34.2170 -99.8230 310° West 386 444 36,000 -67 Level FlightAware ADS-B
Wed 02:04:35 AM 34.2760 -99.9060 311° West 386 444 35,900  Descending FlightAware ADS-B
Wed 02:05:20 AM 34.3290 -99.9820 310° West 388 447 36,000 75 Climbing FlightAware ADS-B
Wed 02:05:55 AM 34.3700 -100.0410 310° West 386 444 36,000  Level FlightAware ADS-B
Wed 02:06:40 AM 34.4210 -100.1140 310° West 386 444 36,000  Level FlightAware ADS-B
Wed 02:07:25 AM 34.4710 -100.1870 310° West 384 442 36,000  Level FlightAware ADS-B
Wed 02:08:00 AM 34.5090 -100.2430 309° West 383 441 36,000  Level FlightAware ADS-B
Wed 02:08:40 AM 34.5470 -100.3000 309° West 383 441 36,000  Level FlightAware ADS-B
Wed 02:09:30 AM 34.5940 -100.3710 309° West 383 441 36,000  Level FlightAware ADS-B
Wed 02:10:10 AM 34.6320 -100.4280 309° West 383 441 36,000  Level FlightAware ADS-B
Wed 02:10:50 AM 34.6700 -100.4840 310° West 383 441 36,000  Level FlightAware ADS-B
Wed 02:11:30 AM 34.7080 -100.5410 309° West 383 441 36,000  Level FlightAware ADS-B
Wed 02:12:10 AM 34.7460 -100.5980 309° West 383 441 36,000  Level FlightAware ADS-B
Wed 02:13:00 AM 34.7930 -100.6700 308° West 383 441 36,000  Level FlightAware ADS-B
Wed 02:13:40 AM 34.8310 -100.7270 309° West 383 441 36,000  Level FlightAware ADS-B
Wed 02:14:20 AM 34.8690 -100.7840 309° West 383 441 36,000  Level FlightAware ADS-B
Wed 02:15:00 AM 34.9070 -100.8410 309° West 383 441 36,000  Level FlightAware ADS-B
Wed 02:15:40 AM 34.9450 -100.8980 309° West 383 441 36,000  Level FlightAware ADS-B
Wed 02:16:30 AM 34.9920 -100.9690 309° West 383 441 36,000  Level FlightAware ADS-B
Wed 02:17:10 AM 35.0300 -101.0270 309° West 383 441 36,000  Level FlightAware ADS-B
Wed 02:17:46 AM 35.1614 -101.1942 309° West 378 435 36,000  Level Albuquerque Center
Wed 02:18:46 AM 35.2275 -101.2914 310° West 376 433 36,000  Level Albuquerque Center
Wed 02:19:47 AM 35.2992 -101.3994 309° West 379 436 36,000  Level Albuquerque Center
Wed 02:20:47 AM 35.3669 -101.4992 310° West 380 437 36,000  Level Albuquerque Center
Wed 02:21:48 AM 35.4325 -101.5994 309° West 378 435 36,000  Level Albuquerque Center
Wed 02:22:48 AM 35.5014 -101.7022 309° West 380 437 36,000  Level Albuquerque Center
Wed 02:23:49 AM 35.5678 -101.8039 309° West 375 432 36,000  Level Albuquerque Center
Wed 02:24:50 AM 35.6336 -101.9042 309° West 376 433 36,000  Level Albuquerque Center
Wed 02:25:50 AM 35.6989 -102.0044 309° West 377 434 36,000  Level Albuquerque Center
Wed 02:26:51 AM 35.7650 -102.1053 309° West 378 435 36,000  Level Albuquerque Center
Wed 02:27:51 AM 35.8308 -102.2050 309° West 379 436 36,000  Level Albuquerque Center
Wed 02:28:52 AM 35.9019 -102.3025 312° West 381 438 36,000  Level Albuquerque Center
Wed 02:29:52 AM 35.9744 -102.3969 314° West 381 438 36,000  Level Albuquerque Center
Wed 02:30:52 AM 36.0297 -102.4761 311° West 381 438 36,000  Level Albuquerque Center
Wed 02:31:53 AM 36.1139 -102.5958 311° West 385 443 36,000  Level Albuquerque Center
Wed 02:32:53 AM 36.1844 -102.6942 312° West 383 441 36,000  Level Albuquerque Center
Wed 02:33:54 AM 36.2547 -102.7922 312° West 383 441 36,000  Level Albuquerque Center
Wed 02:34:54 AM 36.3314 -102.9022 311° West 386 444 36,000  Level Albuquerque Center
Wed 02:35:55 AM 36.3972 -103.0081 308° West 386 444 36,000  Level Albuquerque Center
Wed 02:36:55 AM 36.4661 -103.1150 309° West 391 450 36,000  Level Albuquerque Center
Wed 02:37:56 AM 36.5333 -103.2211 308° West 391 450 36,000  Level Albuquerque Center
Wed 02:43:56 AM 36.9450 -103.8800 308° West 398 458 36,000  Level FlightAware ADS-B
Wed 02:44:27 AM 36.9792 -103.9360 307° West 397 457 36,000  Level FlightAware ADS-B
Wed 02:45:18 AM 37.0363 -104.0280 308° West 397 457 36,000  Level FlightAware ADS-B
Wed 02:46:05 AM 37.0890 -104.1140 308° West 398 458 36,000  Level FlightAware ADS-B
Wed 02:46:35 AM 37.1228 -104.1690 308° West 398 458 36,000  Level FlightAware ADS-B
Wed 02:47:20 AM 37.1733 -104.2510 308° West 399 459 36,000  Level FlightAware ADS-B
Wed 02:48:21 AM 37.2426 -104.3640 308° West 400 460 36,000  Level FlightAware ADS-B
Wed 02:48:52 AM 37.2766 -104.4200 307° West 400 460 36,000  Level FlightAware ADS-B
Wed 02:49:32 AM 37.3217 -104.4940 307° West 401 461 36,000  Level FlightAware ADS-B
Wed 02:51:34 AM 37.4594 -104.7210 307° West 403 464 36,000  Level FlightAware ADS-B
Wed 02:52:13 AM 37.5029 -104.7940 307° West 405 466 36,000  Level FlightAware ADS-B
Wed 02:52:44 AM 37.5374 -104.8510 307° West 404 465 36,000  Level FlightAware ADS-B
Wed 02:53:14 AM 37.5721 -104.9090 307° West 405 466 36,000  Level FlightAware ADS-B
Wed 02:53:45 AM 37.6065 -104.9670 307° West 406 467 36,000  Level FlightAware ADS-B
Wed 02:54:23 AM 37.6502 -105.0390 307° West 406 467 36,000  Level FlightAware ADS-B
Wed 02:54:58 AM 37.6887 -105.1030 307° West 405 466 36,000  Level FlightAware ADS-B
Wed 02:55:28 AM 37.7227 -105.1600 307° West 406 467 36,000  Level FlightAware ADS-B
Wed 02:55:58 AM 37.7567 -105.2170 307° West 404 465 36,000  Level FlightAware ADS-B
Wed 02:56:28 AM 37.7907 -105.2750 307° West 404 465 36,000  Level FlightAware ADS-B
Wed 02:56:58 AM 37.8246 -105.3320 307° West 404 465 36,000  Level FlightAware ADS-B
Wed 02:57:29 AM 37.8582 -105.3890 307° West 403 464 36,000  Level FlightAware ADS-B
Wed 02:57:59 AM 37.8927 -105.4470 307° West 405 466 36,000  Level FlightAware ADS-B
Wed 02:58:31 AM 37.9275 -105.5060 307° West 405 466 36,000  Level FlightAware ADS-B
Wed 02:59:01 AM 37.9613 -105.5630 307° West 407 468 36,000  Level FlightAware ADS-B
Wed 02:59:22 AM 37.9852 -105.6040 306° West 409 471 36,000  Level FlightAware ADS-B
Wed 02:59:52 AM 38.0191 -105.6620 307° West 410 472 36,000  Level FlightAware ADS-B
Wed 03:00:22 AM 38.0537 -105.7210 307° West 413 475 36,000 98 Level FlightAware ADS-B
Wed 03:00:53 AM 38.0884 -105.7800 307° West 413 475 36,100 98 Climbing FlightAware ADS-B
Wed 03:01:23 AM 38.1231 -105.8390 307° West 412 474 36,100 -98 Level FlightAware ADS-B
Wed 03:01:54 AM 38.1566 -105.8970 306° West 412 474 36,000 -98 Descending FlightAware ADS-B
Wed 03:02:24 AM 38.1913 -105.9560 307° West 411 473 36,000  Level FlightAware ADS-B
Wed 03:02:54 AM 38.2251 -106.0150 306° West 409 471 36,000  Level FlightAware ADS-B
Wed 03:03:24 AM 38.2587 -106.0730 306° West 408 470 36,000  Level FlightAware ADS-B
Wed 03:03:54 AM 38.2921 -106.1300 307° West 408 470 36,000  Level FlightAware ADS-B
Wed 03:04:24 AM 38.3258 -106.1880 307° West 408 470 36,000  Level FlightAware ADS-B
Wed 03:04:54 AM 38.3595 -106.2470 306° West 409 471 36,000  Level FlightAware ADS-B
Wed 03:05:24 AM 38.3932 -106.3050 307° West 409 471 36,000  Level FlightAware ADS-B
Wed 03:06:00 AM 38.4329 -106.3740 306° West 411 473 36,000  Level FlightAware ADS-B
Wed 03:06:30 AM 38.4664 -106.4330 306° West 412 474 36,000  Level FlightAware ADS-B
Wed 03:07:02 AM 38.5023 -106.4960 306° West 412 474 36,000  Level FlightAware ADS-B
Wed 03:07:39 AM 38.5440 -106.5690 306° West 411 473 36,000  Level FlightAware ADS-B
Wed 03:08:12 AM 38.5804 -106.6330 306° West 411 473 36,000  Level FlightAware ADS-B
Wed 03:08:42 AM 38.6138 -106.6910 306° West 411 473 36,000  Level FlightAware ADS-B
Wed 03:09:12 AM 38.6481 -106.7520 306° West 411 473 36,000  Level FlightAware ADS-B
Wed 03:09:46 AM 38.6858 -106.8180 306° West 410 472 36,000  Level FlightAware ADS-B
Wed 03:10:20 AM 38.7239 -106.8860 306° West 412 474 36,000  Level FlightAware ADS-B
Wed 03:10:51 AM 38.7575 -106.9450 306° West 413 475 36,000  Level FlightAware ADS-B
Wed 03:11:21 AM 38.7922 -107.0070 306° West 415 478 36,000  Level FlightAware ADS-B
Wed 03:11:52 AM 38.8262 -107.0670 306° West 417 480 36,000  Level FlightAware ADS-B
Wed 03:12:22 AM 38.8605 -107.1280 306° West 419 482 36,000  Level FlightAware ADS-B
Wed 03:12:53 AM 38.8947 -107.1900 305° West 419 482 36,000  Level FlightAware ADS-B
Wed 03:13:23 AM 38.9289 -107.2510 306° West 420 483 36,000  Level FlightAware ADS-B
Wed 03:13:53 AM 38.9629 -107.3120 306° West 420 483 36,000  Level FlightAware ADS-B
Wed 03:14:23 AM 38.9972 -107.3730 306° West 420 483 36,000  Level FlightAware ADS-B
Wed 03:14:54 AM 39.0319 -107.4350 306° West 420 483 36,000  Level FlightAware ADS-B
Wed 03:15:27 AM 39.0687 -107.5020 305° West 420 483 36,000  Level FlightAware ADS-B
Wed 03:16:08 AM 39.1154 -107.5860 306° West 423 487 36,000  Level FlightAware ADS-B
Wed 03:17:13 AM 39.1850 -107.7120 306° West 426 490 36,000  Level FlightAware ADS-B
Wed 03:17:53 AM 39.2310 -107.7960 305° West 427 491 36,000  Level FlightAware ADS-B
Wed 03:18:38 AM 39.2810 -107.8870 305° West 428 493 36,000  Level FlightAware ADS-B
Wed 03:19:18 AM 39.3280 -107.9720 306° West 428 493 36,000  Level FlightAware ADS-B
Wed 03:19:58 AM 39.3730 -108.0560 305° West 428 493 36,000  Level FlightAware ADS-B
Wed 03:20:43 AM 39.4250 -108.1510 305° West 430 495 36,000  Level FlightAware ADS-B
Wed 03:21:23 AM 39.4700 -108.2330 305° West 429 494 36,000  Level FlightAware ADS-B
Wed 03:22:03 AM 39.5140 -108.3160 305° West 428 493 36,000  Level FlightAware ADS-B
Wed 03:22:48 AM 39.5670 -108.4130 305° West 427 491 36,000  Level FlightAware ADS-B
Wed 03:23:28 AM 39.6110 -108.4960 305° West 424 488 36,000  Level FlightAware ADS-B
Wed 03:24:13 AM 39.6610 -108.5890 305° West 419 482 36,000  Level FlightAware ADS-B
Wed 03:24:53 AM 39.7030 -108.6680 305° West 416 479 36,000  Level FlightAware ADS-B
Wed 03:25:33 AM 39.7480 -108.7520 305° West 413 475 36,000  Level FlightAware ADS-B
Wed 03:26:13 AM 39.7880 -108.8270 305° West 411 473 36,000  Level FlightAware ADS-B
Wed 03:26:58 AM 39.8400 -108.9240 305° West 412 474 36,000  Level FlightAware ADS-B
Wed 03:27:38 AM 39.8830 -109.0060 304° West 415 478 36,000  Level FlightAware ADS-B
Wed 03:28:23 AM 39.9330 -109.1010 304° West 416 479 36,000  Level FlightAware ADS-B
Wed 03:29:03 AM 39.9760 -109.1810 305° West 416 479 36,000  Level FlightAware ADS-B
Wed 03:29:38 AM 40.0090 -109.2450 304° West 417 480 36,000  Level FlightAware ADS-B
Wed 03:30:23 AM 40.0620 -109.3460 304° West 417 480 36,000  Level FlightAware ADS-B
Wed 03:31:13 AM 40.1180 -109.4530 304° West 418 481 36,000  Level FlightAware ADS-B
Wed 03:31:53 AM 40.1620 -109.5370 304° West 420 483 36,000  Level FlightAware ADS-B
Wed 03:32:38 AM 40.2100 -109.6300 304° West 422 486 36,000  Level FlightAware ADS-B
Wed 03:33:08 AM 40.2420 -109.6920 304° West 423 487 36,000  Level FlightAware ADS-B
Wed 03:34:08 AM 40.3010 -109.8060 304° West 424 488 36,000  Level FlightAware ADS-B
Wed 03:34:53 AM 40.3560 -109.9150 304° West 426 490 36,000  Level FlightAware ADS-B
Wed 03:35:38 AM 40.4040 -110.0090 304° West 426 490 36,000  Level FlightAware ADS-B
Wed 03:36:18 AM 40.4400 -110.0830 303° West 426 490 36,000  Level FlightAware ADS-B
Wed 03:36:58 AM 40.4770 -110.1570 303° West 426 490 36,000  Level FlightAware ADS-B
Wed 03:37:38 AM 40.5130 -110.2300 303° West 426 490 36,000  Level FlightAware ADS-B
Wed 03:38:21 AM 40.5867 -110.3667 303° West 436 502 36,000  Level Salt Lake Center
Wed 03:39:22 AM 40.6511 -110.4939 304° West 436 502 36,000  Level Salt Lake Center
Wed 03:40:22 AM 40.7161 -110.6250 303° West 437 503 36,000  Level Salt Lake Center
Wed 03:45:33 AM 41.0610 -111.3180 303° West 412 474 36,000  Level FlightAware ADS-B
Wed 03:46:18 AM 41.1050 -111.4090 303° West 412 474 36,000 -57 Level FlightAware ADS-B
Wed 03:47:18 AM 41.1670 -111.5370 303° West 416 479 35,900  Descending FlightAware ADS-B
Wed 03:47:58 AM 41.2160 -111.6350 304° West 416 479 36,000 141 Climbing FlightAware ADS-B
Wed 03:48:43 AM 41.2590 -111.7220 303° West 415 478 36,100  Climbing FlightAware ADS-B
Wed 03:49:23 AM 41.3020 -111.8120 302° West 414 476 36,000 -63 Descending FlightAware ADS-B
Wed 03:50:18 AM 41.3550 -111.9240 302° West 415 478 36,000  Level FlightAware ADS-B
Wed 03:50:58 AM 41.3900 -111.9980 302° West 415 478 36,000  Level FlightAware ADS-B
Wed 03:51:38 AM 41.4250 -112.0720 302° West 415 478 36,000 71 Level FlightAware ADS-B
Wed 03:52:23 AM 41.4890 -112.2020 303° West 419 482 36,100 67 Climbing FlightAware ADS-B
Wed 03:53:08 AM 41.5300 -112.2900 302° West 419 482 36,100  Level FlightAware ADS-B
Wed 03:53:48 AM 41.5650 -112.3650 302° West 419 482 36,100  Level FlightAware ADS-B
Wed 03:54:28 AM 41.6000 -112.4390 302° West 419 482 36,100 -71 Level FlightAware ADS-B
Wed 03:55:13 AM 41.6660 -112.5750 303° West 420 483 36,000 -71 Descending FlightAware ADS-B
Wed 03:55:53 AM 41.7060 -112.6600 302° West 422 486 36,000  Level FlightAware ADS-B
Wed 03:56:38 AM 41.7500 -112.7540 302° West 422 486 36,000  Level FlightAware ADS-B
Wed 03:57:33 AM 41.8100 -112.8830 302° West 419 482 36,000  Level FlightAware ADS-B
Wed 03:58:08 AM 41.8420 -112.9530 302° West 419 482 36,000  Level FlightAware ADS-B
Wed 03:58:58 AM 41.8840 -113.0470 301° West 419 482 36,000  Level FlightAware ADS-B
Wed 03:59:38 AM 41.9180 -113.1230 301° West 419 482 36,000  Level FlightAware ADS-B
Wed 04:00:18 AM 41.9520 -113.1990 301° West 419 482 36,000  Level FlightAware ADS-B
Wed 04:00:58 AM 41.9860 -113.2750 301° West 419 482 36,000  Level FlightAware ADS-B
Wed 04:01:38 AM 42.0200 -113.3510 301° West 419 482 36,000  Level FlightAware ADS-B
Wed 04:02:28 AM 42.0620 -113.4460 301° West 419 482 36,000  Level FlightAware ADS-B
Wed 04:03:08 AM 42.0960 -113.5230 301° West 419 482 36,000  Level FlightAware ADS-B
Wed 04:03:48 AM 42.1300 -113.5990 301° West 419 482 36,000  Level FlightAware ADS-B
Wed 04:04:28 AM 42.1640 -113.6750 301° West 419 482 36,000  Level FlightAware ADS-B
Wed 04:05:08 AM 42.1980 -113.7510 301° West 419 482 36,000  Level FlightAware ADS-B
Wed 04:05:58 AM 42.2400 -113.8470 301° West 419 482 36,000  Level FlightAware ADS-B
Wed 04:06:38 AM 42.2740 -113.9230 301° West 419 482 36,000  Level FlightAware ADS-B
Wed 04:07:18 AM 42.3080 -113.9990 301° West 419 482 36,000 -2,143 Level FlightAware ADS-B
Wed 04:08:30 AM 42.4300 -114.2461 301° West 414 476 32,000 -1,805 Descending Salt Lake Center
Wed 04:09:31 AM 42.4875 -114.3778 301° West 407 468 32,000  Level Salt Lake Center
Wed 04:10:31 AM 42.5456 -114.5067 301° West 401 461 32,000  Level Salt Lake Center
Wed 04:11:31 AM 42.6042 -114.6397 301° West 410 472 32,000  Level Salt Lake Center
Wed 04:12:31 AM 42.6708 -114.7911 301° West 410 472 32,000  Level Salt Lake Center
Wed 04:13:32 AM 42.7261 -114.9183 301° West 409 471 32,000  Level Salt Lake Center
Wed 04:14:32 AM 42.7817 -115.0464 301° West 409 471 32,000  Level Salt Lake Center
Wed 04:15:32 AM 42.8467 -115.1958 301° West 410 472 32,000  Level Salt Lake Center
Wed 04:16:32 AM 42.9028 -115.3253 301° West 412 474 32,000  Level Salt Lake Center
Wed 04:17:32 AM 42.9572 -115.4508 301° West 404 465 32,000  Level Salt Lake Center
Wed 04:18:33 AM 43.0133 -115.5836 300° West 413 475 32,000  Level Salt Lake Center
Wed 04:19:33 AM 43.0769 -115.7331 300° West 408 470 32,000  Level Salt Lake Center
Wed 04:20:33 AM 43.1314 -115.8664 299° West 414 476 32,000  Level Salt Lake Center
Wed 04:21:33 AM 43.1856 -115.9933 300° West 405 466 32,000  Level Salt Lake Center
Wed 04:22:33 AM 43.2494 -116.1450 300° West 410 472 32,000  Level Salt Lake Center
Wed 04:23:33 AM 43.3036 -116.2761 300° West 411 473 32,000  Level Salt Lake Center
Wed 04:24:34 AM 43.3583 -116.4075 300° West 413 475 32,000  Level Salt Lake Center
Wed 04:25:34 AM 43.4125 -116.5394 300° West 415 478 32,000 50 Level Salt Lake Center
Wed 04:26:34 AM 43.4767 -116.6961 299° West 421 484 32,100  Climbing Salt Lake Center
Wed 04:27:34 AM 43.5306 -116.8267 300° West 412 474 32,000 -50 Descending Salt Lake Center
Wed 04:28:34 AM 43.5844 -116.9606 299° West 415 478 32,000  Level Salt Lake Center
Wed 04:29:35 AM 43.6386 -117.0942 299° West 416 479 32,000  Level Salt Lake Center
Wed 04:30:35 AM 43.7008 -117.2481 299° West 411 473 32,000  Level Salt Lake Center
Wed 04:31:35 AM 43.7542 -117.3822 299° West 412 474 32,000  Level Salt Lake Center
Wed 04:32:35 AM 43.8081 -117.5172 299° West 416 479 32,000  Level Salt Lake Center
Wed 04:33:35 AM 43.8628 -117.6528 299° West 420 483 32,000 50 Level Salt Lake Center
Wed 04:34:35 AM 43.9250 -117.8128 298° West 422 486 32,100  Climbing Salt Lake Center
Wed 04:35:36 AM 43.9792 -117.9489 299° West 419 482 32,000 -50 Descending Salt Lake Center
Wed 04:36:36 AM 44.0322 -118.0853 298° West 418 481 32,000  Level Salt Lake Center
Wed 04:37:16 AM 44.0683 -118.1761 299° West 418 481 32,000  Level Seattle Center
Wed 04:38:16 AM 44.1278 -118.3297 298° West 425 489 32,000  Level Seattle Center
Wed 04:39:16 AM 44.1831 -118.4800 297° West 434 499 32,000  Level Seattle Center
Wed 04:40:16 AM 44.2403 -118.6286 298° West 436 502 32,000  Level Seattle Center
Wed 04:41:16 AM 44.2978 -118.7803 298° West 442 509 32,000  Level Seattle Center
Wed 04:42:16 AM 44.3550 -118.9325 298° West 443 510 32,000  Level Seattle Center
Wed 04:43:16 AM 44.4103 -119.0861 297° West 443 510 32,000  Level Seattle Center
Wed 04:44:16 AM 44.4656 -119.2414 297° West 445 512 32,000  Level Seattle Center
Wed 04:45:16 AM 44.5214 -119.3972 297° West 448 516 32,000  Level Seattle Center
Wed 04:46:17 AM 44.5750 -119.5525 296° West 444 511 32,000  Level Seattle Center
Wed 04:47:17 AM 44.6306 -119.7100 296° West 448 516 32,000  Level Seattle Center
Wed 04:48:17 AM 44.6847 -119.8700 296° West 450 518 32,000  Level Seattle Center
Wed 04:49:17 AM 44.7394 -120.0308 296° West 452 520 32,000  Level Seattle Center
Wed 04:50:17 AM 44.7950 -120.1911 296° West 450 518 32,000  Level Seattle Center
Wed 04:51:17 AM 44.8378 -120.3175 296° West 443 510 32,000 -1,000 Level Seattle Center
Wed 04:52:17 AM 44.8906 -120.4764 295° West 444 511 30,000 -2,250 Descending Seattle Center
Wed 04:53:17 AM 44.9453 -120.6375 296° West 456 525 27,500 -2,400 Descending Seattle Center
Wed 04:54:17 AM 44.9972 -120.7919 295° West 441 507 25,200 -2,132 Descending Seattle Center
Wed 04:55:18 AM 45.0458 -120.9403 295° West 420 483 23,200 -2,132 Descending Seattle Center
Wed 04:56:18 AM 45.0914 -121.0797 295° West 397 457 20,900 -2,200 Descending Seattle Center
Wed 04:57:18 AM 45.1361 -121.2161 295° West 384 442 18,800 -2,000 Descending Seattle Center
Wed 04:58:18 AM 45.1792 -121.3467 295° West 368 423 16,900 -2,268 Descending Seattle Center
Wed 04:58:40 AM 45.2033 -121.4175 296° West 359 413 15,700 -2,400 Descending Seattle Center
Wed 04:59:18 AM 45.2192 -121.4708 293° West 351 404 14,500 -1,574 Descending Seattle Center
Wed 04:59:41 AM 45.2428 -121.5422 295° West 347 399 14,100 -400 Descending Seattle Center
Wed 05:00:18 AM 45.2542 -121.5986 286° West 348 400 14,100 -98 Level Seattle Center
Wed 05:00:42 AM 45.2567 -121.6686 273° West 315 362 14,000 -200 Descending Seattle Center
Wed 05:01:18 AM 45.2606 -121.7203 276° West 313 360 13,900 -1,100 Descending Seattle Center
Wed 05:01:42 AM 45.2672 -121.7906 278° West 303 349 12,900 -1,300 Descending Seattle Center
Wed 05:02:18 AM 45.2689 -121.8389 273° West 303 349 12,600 -984 Descending Seattle Center
Wed 05:02:43 AM 45.2758 -121.9039 279° West 282 325 11,900 -1,700 Descending Seattle Center
Wed 05:03:18 AM 45.2811 -121.9653 277° West 276 318 10,900 -1,400 Descending Seattle Center
Wed 05:03:43 AM 45.2936 -122.0103 292° West 270 311 10,500 -1,377 Descending Seattle Center
Wed 05:04:19 AM 45.3167 -122.0547 306° West 266 306 9,500 -1,279 Descending Seattle Center
Wed 05:04:44 AM 45.3397 -122.0864 316° Northwest 261 300 9,200 -800 Descending Seattle Center
Wed 05:05:19 AM 45.3642 -122.1256 312° West 253 291 8,700 -1,082 Descending Seattle Center
Wed 05:05:45 AM 45.3828 -122.1578 309° West 218 251 8,100 -1,600 Descending Seattle Center
Wed 05:06:19 AM 45.4042 -122.1883 315° West 222 255 7,100 -1,600 Descending Seattle Center
Wed 05:06:45 AM 45.4233 -122.2178 313° West 216 249 6,500 -1,200 Descending Seattle Center
Wed 05:07:19 AM 45.4464 -122.2481 317° Northwest 218 251 5,900 -1,180 Descending Seattle Center
Wed 05:07:46 AM 45.4647 -122.2717 318° Northwest 202 232 5,300 -1,600 Descending Seattle Center
Wed 05:08:19 AM 45.4819 -122.3056 306° West 205 236 4,300 -1,500 Descending Seattle Center
Wed 05:08:46 AM 45.4928 -122.3339 299° West 180 207 3,800 -1,000 Descending Seattle Center
Wed 05:09:19 AM 45.5053 -122.3669 298° West 183 211 3,300 -873 Descending Seattle Center
Wed 05:09:41 AM 45.5131 -122.3906 295° West 173 199 3,000 -900 Descending Seattle Center
Wed 05:10:19 AM 45.5275 -122.4242 302° West 172 198 2,400 -885 Descending Seattle Center
Wed 05:10:42 AM 45.5353 -122.4461 297° West 160 184 2,100 -800 Descending Seattle Center
Wed 05:11:19 AM 45.5497 -122.4758 305° West 163 188 1,600 -700 Descending Seattle Center
Wed 05:11:42 AM 45.5556 -122.4933 295° West 140 161 1,400 -800 Descending Seattle Center
Wed 05:12:19 AM 45.5672 -122.5231 299° West 152 175 800 -787 Descending Seattle Center
Wed 05:12:43 AM 45.5714 -122.5392 290° West 130 150 600 -689 Descending Seattle Center
Wed 05:13:20 AM 45.5842 -122.5681 302° West 142 163 100 -811 Descending Seattle Center

Login

Don't have an account? Register now (free) for customized features, flight alerts, and more!